Time;durP1;ratioP1;P1;durP2;ratioP2;P2;SDS_P1;SDS_P2;PMS_P1;PMS_P2;Temp;Humidity;BMP_temperature;BMP_pressure;BME280_temperature;BME280_humidity;BME280_pressure;Samples;Min_cycle;Max_cycle;Signal;HPM_P1;HPM_P2
2023/01/31 05:32:21;;;;;;;7.05;2.17;;;8.10;77.80;;;;;;4996608;23;20056;-80
2023/01/31 05:34:46;;;;;;;4.47;2.08;;;8.00;77.70;;;;;;4934277;29;20111;-82
2023/01/31 05:37:12;;;;;;;7.97;2.40;;;8.00;77.60;;;;;;4903409;29;20145;-87
2023/01/31 05:39:38;;;;;;;12.32;2.65;;;8.00;77.40;;;;;;4904561;29;20043;-86
2023/01/31 05:42:03;;;;;;;2.40;1.88;;;8.00;77.20;;;;;;4925824;29;20030;-86
2023/01/31 05:44:31;;;;;;;4.25;2.25;;;8.10;77.30;;;;;;4923660;29;20032;-87
2023/01/31 05:46:57;;;;;;;2.53;2.15;;;8.10;77.00;;;;;;4937054;29;20020;-92
2023/01/31 05:49:22;;;;;;;9.90;2.25;;;8.00;77.30;;;;;;4924069;29;20508;-84
2023/01/31 05:51:48;;;;;;;4.82;2.10;;;8.10;76.80;;;;;;4922713;29;20043;-83
2023/01/31 05:54:14;;;;;;;7.28;2.67;;;8.10;76.10;;;;;;4940433;29;20398;-86
2023/01/31 05:57:02;;;;;;;6.72;2.30;;;8.10;76.30;;;;;;4919411;29;20054;-80
2023/01/31 05:59:30;;;;;;;10.43;3.63;;;8.20;76.90;;;;;;4905788;29;20522;-84
2023/01/31 06:01:55;;;;;;;18.58;6.35;;;8.10;76.80;;;;;;4913790;29;20051;-89
2023/01/31 06:04:27;;;;;;;18.27;6.28;;;8.20;76.90;;;;;;4932833;29;20471;-85
2023/01/31 06:06:53;;;;;;;14.73;3.72;;;8.10;77.10;;;;;;4937414;29;20028;-84
2023/01/31 06:09:18;;;;;;;6.95;3.47;;;8.10;77.10;;;;;;4924911;29;20042;-84
2023/01/31 06:11:44;;;;;;;10.70;3.40;;;8.10;77.00;;;;;;4920871;29;20446;-79
2023/01/31 06:14:11;;;;;;;8.00;3.05;;;8.00;77.00;;;;;;4920745;29;20517;-77
2023/01/31 06:16:37;;;;;;;6.18;2.40;;;8.00;77.10;;;;;;4939151;29;20031;-79
2023/01/31 06:19:03;;;;;;;11.48;3.28;;;8.00;77.20;;;;;;4940055;29;20040;-79
2023/01/31 06:21:29;;;;;;;10.65;3.53;;;8.00;77.20;;;;;;4955031;29;20083;-79
2023/01/31 06:23:54;;;;;;;9.95;4.57;;;8.00;77.50;;;;;;4938816;29;20023;-80
2023/01/31 06:26:20;;;;;;;9.35;3.90;;;8.00;77.30;;;;;;4924122;29;20486;-81
2023/01/31 06:28:46;;;;;;;6.72;3.53;;;8.00;77.50;;;;;;4922696;29;20039;-81
2023/01/31 06:31:12;;;;;;;9.23;2.97;;;8.00;77.60;;;;;;4933211;29;20055;-81
2023/01/31 06:33:38;;;;;;;11.13;2.97;;;8.00;77.10;;;;;;4933883;29;20091;-80
2023/01/31 06:36:04;;;;;;;5.88;2.20;;;8.00;77.50;;;;;;4924046;29;20428;-82
2023/01/31 06:38:30;;;;;;;4.88;2.33;;;8.00;77.60;;;;;;4938582;29;20035;-82
2023/01/31 06:40:56;;;;;;;8.38;2.63;;;7.90;77.70;;;;;;4920955;29;20032;-82
2023/01/31 06:43:22;;;;;;;4.10;2.22;;;8.00;77.70;;;;;;4932812;29;20019;-82
2023/01/31 06:45:48;;;;;;;8.57;2.20;;;7.90;77.40;;;;;;4928900;29;20035;-82
2023/01/31 06:48:14;;;;;;;3.80;2.13;;;8.00;77.40;;;;;;4913584;29;20062;-82
2023/01/31 06:50:40;;;;;;;11.30;2.10;;;8.00;77.80;;;;;;4940527;29;20036;-82
2023/01/31 06:53:06;;;;;;;10.38;2.92;;;8.00;77.00;;;;;;4931745;29;20035;-81
2023/01/31 06:55:31;;;;;;;4.97;2.00;;;8.00;77.40;;;;;;4934210;29;20035;-81
2023/01/31 06:57:57;;;;;;;8.05;2.35;;;8.00;77.50;;;;;;4927195;29;20038;-82
2023/01/31 07:00:24;;;;;;;3.85;2.20;;;8.00;77.10;;;;;;4924367;29;20122;-82
2023/01/31 07:02:50;;;;;;;6.57;2.50;;;8.00;77.10;;;;;;4939820;29;20030;-82
2023/01/31 07:05:19;;;;;;;15.55;2.92;;;8.00;77.20;;;;;;4932851;29;20056;-81
2023/01/31 07:07:46;;;;;;;5.63;2.15;;;8.00;77.00;;;;;;4939598;29;20079;-82
2023/01/31 07:10:12;;;;;;;4.07;2.13;;;8.00;76.90;;;;;;4919659;29;20071;-81
2023/01/31 07:12:38;;;;;;;8.65;2.75;;;8.00;76.70;;;;;;4953358;29;20028;-82
2023/01/31 07:15:05;;;;;;;9.15;2.10;;;8.00;77.00;;;;;;4939776;29;20028;-82
2023/01/31 07:17:32;;;;;;;5.75;2.72;;;8.00;77.20;;;;;;4932194;29;20535;-82
2023/01/31 07:19:57;;;;;;;10.75;4.75;;;8.00;77.00;;;;;;4939292;29;20426;-82
2023/01/31 07:22:23;;;;;;;14.68;5.20;;;8.00;77.10;;;;;;4922636;29;20118;-82
2023/01/31 07:24:49;;;;;;;19.58;6.13;;;7.90;76.60;;;;;;4922518;29;20027;-82
2023/01/31 07:27:15;;;;;;;10.48;5.72;;;7.90;76.90;;;;;;4917670;29;20032;-82
2023/01/31 07:29:42;;;;;;;9.95;5.22;;;7.90;76.30;;;;;;4939730;29;20124;-81
2023/01/31 07:32:08;;;;;;;11.15;4.65;;;7.90;76.50;;;;;;4938951;29;20074;-81
2023/01/31 07:34:34;;;;;;;6.47;4.28;;;8.00;76.70;;;;;;4909149;29;20595;-82
2023/01/31 07:37:00;;;;;;;9.05;3.20;;;8.00;76.60;;;;;;4919888;29;20028;-82
2023/01/31 07:39:28;;;;;;;9.13;3.58;;;8.00;76.80;;;;;;4926724;29;20035;-82
2023/01/31 07:41:54;;;;;;;5.82;2.83;;;8.00;76.70;;;;;;4918784;29;20024;-82
2023/01/31 07:44:20;;;;;;;9.70;2.75;;;8.00;76.90;;;;;;4934682;29;20494;-82
2023/01/31 07:46:45;;;;;;;3.75;2.40;;;8.00;77.00;;;;;;4935519;29;20395;-82
2023/01/31 07:49:11;;;;;;;5.82;2.60;;;8.00;76.30;;;;;;4916622;29;20039;-82
2023/01/31 07:51:37;;;;;;;8.32;2.42;;;8.00;76.30;;;;;;4920106;29;20056;-82
2023/01/31 07:54:04;;;;;;;5.57;3.42;;;8.10;76.80;;;;;;4932017;29;20399;-81
2023/01/31 07:56:32;;;;;;;10.07;4.43;;;8.10;76.50;;;;;;4929952;29;20043;-81
2023/01/31 07:58:59;;;;;;;19.67;6.78;;;8.10;76.30;;;;;;4930860;29;20083;-82
2023/01/31 08:04:12;;;;;;;11.52;5.32;;;8.10;76.40;;;;;;4939151;29;20067;-82
2023/01/31 08:06:39;;;;;;;12.43;4.72;;;8.10;76.50;;;;;;4920929;29;20036;-82
2023/01/31 08:09:05;;;;;;;16.90;5.38;;;8.10;76.00;;;;;;4914214;29;20075;-81
2023/01/31 08:11:30;;;;;;;11.27;4.00;;;8.10;76.40;;;;;;4945167;29;20027;-82
2023/01/31 08:13:56;;;;;;;8.77;3.60;;;8.20;76.20;;;;;;4924068;29;20499;-82
2023/01/31 08:16:22;;;;;;;14.80;4.45;;;8.20;75.90;;;;;;4938018;29;20055;-82
2023/01/31 08:18:48;;;;;;;12.30;4.10;;;8.20;76.10;;;;;;4922632;29;20040;-82
2023/01/31 08:21:14;;;;;;;12.32;4.50;;;8.20;76.10;;;;;;4938568;29;20027;-82
2023/01/31 08:23:40;;;;;;;10.82;4.10;;;8.30;75.80;;;;;;4927653;29;20028;-82
2023/01/31 08:26:10;;;;;;;13.52;4.80;;;8.30;76.30;;;;;;4938137;29;20016;-82
2023/01/31 08:28:37;;;;;;;14.35;5.10;;;8.30;76.00;;;;;;4920186;29;20554;-82
2023/01/31 08:31:04;;;;;;;16.25;4.43;;;8.30;75.90;;;;;;4938065;29;20126;-81
2023/01/31 08:33:30;;;;;;;14.85;4.35;;;8.30;75.80;;;;;;4933380;29;20055;-82
2023/01/31 08:35:55;;;;;;;8.45;4.60;;;8.30;76.30;;;;;;4922635;29;20032;-82
2023/01/31 08:38:21;;;;;;;14.85;4.60;;;8.40;76.10;;;;;;4921542;29;20027;-82
2023/01/31 08:40:47;;;;;;;13.35;4.47;;;8.40;75.90;;;;;;4938328;29;20032;-82
2023/01/31 08:43:13;;;;;;;14.25;4.80;;;8.40;75.80;;;;;;4938613;29;20084;-82
2023/01/31 08:45:39;;;;;;;8.57;4.50;;;8.40;75.40;;;;;;4920438;29;20045;-82
2023/01/31 08:48:05;;;;;;;9.85;3.45;;;8.50;75.60;;;;;;4938296;29;20040;-82
2023/01/31 08:50:32;;;;;;;10.48;3.38;;;8.50;75.60;;;;;;4931553;29;20104;-82
2023/01/31 08:53:00;;;;;;;6.95;2.67;;;8.50;75.10;;;;;;4920288;29;20032;-81
2023/01/31 08:55:26;;;;;;;4.00;2.25;;;8.60;75.20;;;;;;4927063;29;20032;-82
2023/01/31 08:57:53;;;;;;;6.75;3.40;;;8.70;75.10;;;;;;4938463;29;20024;-82
2023/01/31 09:00:20;;;;;;;6.65;2.70;;;8.70;74.90;;;;;;4941386;29;20039;-82
2023/01/31 09:02:57;;;;;;;10.30;3.58;;;8.70;75.10;;;;;;4942099;29;20028;-82
2023/01/31 09:05:25;;;;;;;7.22;2.97;;;8.70;75.00;;;;;;4941740;29;20039;-82
2023/01/31 09:07:51;;;;;;;10.30;3.40;;;8.70;74.90;;;;;;4933975;29;20040;-82
2023/01/31 09:10:18;;;;;;;8.50;2.50;;;8.80;75.00;;;;;;4940065;29;20526;-82
2023/01/31 09:12:43;;;;;;;7.88;2.75;;;8.80;74.50;;;;;;4958213;29;20028;-82
2023/01/31 09:15:10;;;;;;;10.35;3.13;;;8.80;75.00;;;;;;4933689;29;20075;-82
2023/01/31 09:17:35;;;;;;;8.63;3.53;;;8.80;74.90;;;;;;4905203;29;20034;-82
2023/01/31 09:20:05;;;;;;;7.85;2.92;;;8.80;74.60;;;;;;4916273;29;20115;-82
2023/01/31 09:22:32;;;;;;;6.70;3.33;;;8.80;74.40;;;;;;4905324;29;20024;-82
2023/01/31 09:24:58;;;;;;;4.00;2.53;;;8.80;74.80;;;;;;4919553;29;20055;-82
2023/01/31 09:27:25;;;;;;;8.75;2.88;;;8.90;74.70;;;;;;4941569;29;20020;-82
2023/01/31 09:29:51;;;;;;;6.13;2.70;;;8.90;74.40;;;;;;4941700;29;20035;-82
2023/01/31 09:32:16;;;;;;;7.03;3.08;;;9.00;74.40;;;;;;4930084;29;20063;-82
2023/01/31 09:34:42;;;;;;;7.28;3.17;;;9.30;74.10;;;;;;4933933;29;20027;-82
2023/01/31 09:37:08;;;;;;;4.82;3.00;;;9.50;73.50;;;;;;4941094;29;20039;-82
2023/01/31 09:39:33;;;;;;;3.85;2.72;;;9.70;72.90;;;;;;4935890;29;20063;-82
2023/01/31 09:42:09;;;;;;;4.72;2.60;;;9.80;73.10;;;;;;4935986;29;20495;-82
2023/01/31 09:44:41;;;;;;;7.40;3.75;;;9.80;72.40;;;;;;4924280;29;20414;-82
2023/01/31 09:47:17;;;;;;;5.32;3.42;;;10.40;71.00;;;;;;4923626;29;20031;-82
2023/01/31 09:49:53;;;;;;;7.53;2.40;;;11.20;70.40;;;;;;4940932;29;20028;-82
2023/01/31 09:52:21;;;;;;;6.05;2.38;;;11.80;67.50;;;;;;4926597;29;20036;-83
2023/01/31 09:54:47;;;;;;;8.77;2.47;;;11.70;66.30;;;;;;4933437;29;20024;-83
2023/01/31 09:57:24;;;;;;;3.97;1.77;;;11.70;66.00;;;;;;4933271;29;20044;-83
2023/01/31 09:59:53;;;;;;;5.35;2.30;;;11.50;66.30;;;;;;4923575;29;20036;-83
2023/01/31 10:02:27;;;;;;;5.97;2.00;;;11.30;66.20;;;;;;4940555;29;20028;-83
2023/01/31 10:05:06;;;;;;;6.88;2.90;;;11.10;67.20;;;;;;4939380;29;20380;-83
2023/01/31 10:07:39;;;;;;;10.27;2.30;;;11.00;67.60;;;;;;4919030;29;20040;-82
2023/01/31 10:10:17;;;;;;;7.03;2.13;;;11.00;68.00;;;;;;4934287;29;20023;-83
2023/01/31 10:12:50;;;;;;;6.75;1.92;;;10.90;67.40;;;;;;4939309;29;20032;-83
2023/01/31 10:15:29;;;;;;;4.07;1.73;;;10.80;67.70;;;;;;4935448;29;20040;-83
2023/01/31 10:18:00;;;;;;;7.38;2.22;;;10.80;67.90;;;;;;4926661;29;20054;-83
2023/01/31 10:20:44;;;;;;;8.48;2.28;;;10.70;68.00;;;;;;4928715;29;20087;-83
2023/01/31 10:23:24;;;;;;;8.75;2.75;;;10.70;68.50;;;;;;4922705;29;20400;-83
2023/01/31 10:25:54;;;;;;;7.50;2.30;;;10.60;68.70;;;;;;4937438;29;20123;-82
2023/01/31 10:28:33;;;;;;;6.07;2.65;;;10.60;68.50;;;;;;4940806;29;20043;-82
2023/01/31 10:31:09;;;;;;;10.15;2.15;;;10.50;69.00;;;;;;4940585;29;20052;-83
2023/01/31 10:33:47;;;;;;;13.60;3.72;;;10.50;68.80;;;;;;4940750;29;20067;-82
2023/01/31 10:36:31;;;;;;;7.75;2.38;;;10.50;68.70;;;;;;4929477;29;20111;-82
2023/01/31 10:39:03;;;;;;;12.27;2.08;;;10.50;69.00;;;;;;4924466;29;20036;-82
2023/01/31 10:41:43;;;;;;;6.97;2.10;;;10.50;69.20;;;;;;4904043;29;20032;-82
2023/01/31 10:44:20;;;;;;;7.07;1.45;;;10.60;69.30;;;;;;4907928;29;20058;-82
2023/01/31 10:46:47;;;;;;;8.95;2.15;;;10.50;68.20;;;;;;4939470;29;20395;-82
2023/01/31 10:49:13;;;;;;;4.93;1.90;;;10.60;68.50;;;;;;4939158;29;20075;-82
2023/01/31 10:52:03;;;;;;;5.55;1.92;;;10.60;68.40;;;;;;4939528;29;20023;-82
2023/01/31 10:55:03;;;;;;;6.30;1.95;;;10.60;68.20;;;;;;4936997;29;20031;-82
2023/01/31 10:57:30;;;;;;;6.10;1.83;;;10.70;68.30;;;;;;4904199;29;20071;-82
2023/01/31 10:59:56;;;;;;;5.65;2.28;;;10.90;68.10;;;;;;4931114;29;20124;-83
2023/01/31 11:02:25;;;;;;;7.00;1.95;;;10.90;67.60;;;;;;4922018;29;20059;-83
2023/01/31 11:04:53;;;;;;;7.85;2.40;;;11.10;66.80;;;;;;4919376;29;20083;-82
2023/01/31 11:07:20;;;;;;;6.68;1.80;;;11.30;66.50;;;;;;4903947;29;20024;-83
2023/01/31 11:09:52;;;;;;;9.55;2.30;;;11.50;66.20;;;;;;4928008;29;20024;-82
2023/01/31 11:12:37;;;;;;;5.57;2.25;;;11.50;65.80;;;;;;4937108;29;20434;-82
2023/01/31 11:15:06;;;;;;;5.72;2.15;;;11.60;65.60;;;;;;4948913;29;20038;-83
2023/01/31 11:17:35;;;;;;;10.85;2.58;;;11.50;66.60;;;;;;4927395;29;20043;-82
2023/01/31 11:20:05;;;;;;;9.13;3.13;;;11.60;66.40;;;;;;4929378;29;20063;-82
2023/01/31 11:22:33;;;;;;;9.52;2.20;;;11.70;66.60;;;;;;4924796;29;20056;-82
2023/01/31 11:25:03;;;;;;;4.30;2.08;;;11.80;66.00;;;;;;4928523;29;20087;-83
2023/01/31 11:27:40;;;;;;;7.63;2.10;;;11.90;65.80;;;;;;4926601;29;20039;-83
2023/01/31 11:30:26;;;;;;;10.23;2.63;;;12.00;65.30;;;;;;4928900;29;20032;-82
2023/01/31 11:32:52;;;;;;;7.93;2.63;;;12.00;65.00;;;;;;4938482;29;20043;-82
2023/01/31 11:35:18;;;;;;;5.97;2.05;;;12.00;65.10;;;;;;4938683;29;20031;-82
2023/01/31 11:37:54;;;;;;;6.28;1.85;;;12.00;65.30;;;;;;4939310;29;20087;-82
2023/01/31 11:40:29;;;;;;;9.75;2.97;;;12.00;65.50;;;;;;4938826;29;20418;-82
2023/01/31 11:43:00;;;;;;;10.50;2.95;;;12.00;66.50;;;;;;4917487;29;20035;-82
2023/01/31 11:45:32;;;;;;;5.22;2.22;;;12.00;66.00;;;;;;4930605;29;20031;-82
2023/01/31 11:48:08;;;;;;;11.27;2.35;;;12.00;66.40;;;;;;4921844;29;20111;-82
2023/01/31 11:50:38;;;;;;;5.13;2.10;;;12.00;65.40;;;;;;4921702;29;20066;-82
2023/01/31 11:53:18;;;;;;;3.70;1.75;;;11.90;65.90;;;;;;4924417;29;20032;-82
2023/01/31 11:55:44;;;;;;;9.82;2.15;;;11.90;66.20;;;;;;4924510;29;20039;-82
2023/01/31 11:58:25;;;;;;;5.50;2.10;;;11.90;66.00;;;;;;4911393;29;20031;-82
2023/01/31 12:01:00;;;;;;;9.00;2.55;;;11.80;66.30;;;;;;4920862;29;20035;-82
2023/01/31 12:03:27;;;;;;;11.10;3.38;;;11.80;66.00;;;;;;4938664;29;20032;-82
2023/01/31 12:06:07;;;;;;;9.77;2.88;;;11.70;66.50;;;;;;4938535;29;20372;-82
2023/01/31 12:08:38;;;;;;;7.38;2.25;;;11.70;66.70;;;;;;4923982;29;20039;-83
2023/01/31 12:11:29;;;;;;;7.18;2.47;;;11.70;66.60;;;;;;4937375;29;20479;-82
2023/01/31 12:14:16;;;;;;;6.57;2.55;;;11.70;66.90;;;;;;4926074;29;20040;-82
2023/01/31 12:16:45;;;;;;;8.52;2.45;;;11.60;67.00;;;;;;4938031;29;20376;-82
2023/01/31 12:19:27;;;;;;;3.97;2.37;;;11.70;67.00;;;;;;4917695;29;20036;-83
2023/01/31 12:22:09;;;;;;;5.53;2.22;;;11.60;66.40;;;;;;4919520;29;20277;-82
2023/01/31 12:25:06;;;;;;;7.25;3.55;;;11.60;67.10;;;;;;4921088;29;20056;-82
2023/01/31 12:28:03;;;;;;;7.32;2.75;;;11.60;67.00;;;;;;4937146;29;20027;-82
2023/01/31 12:31:04;;;;;;;6.78;2.30;;;11.70;67.30;;;;;;4903018;29;20123;-82
2023/01/31 12:33:48;;;;;;;3.38;1.77;;;11.60;67.40;;;;;;4931678;29;20028;-82
2023/01/31 12:37:15;;;;;;;7.15;2.53;;;11.50;67.10;;;;;;4924480;29;20043;-82
2023/01/31 12:39:52;;;;;;;11.00;2.65;;;11.40;68.00;;;;;;4854172;29;20598;-82
2023/01/31 12:42:45;;;;;;;9.63;2.92;;;11.50;68.30;;;;;;4866644;29;20093;-82
2023/01/31 12:45:26;;;;;;;8.20;2.25;;;11.60;68.30;;;;;;4919979;29;20406;-82
2023/01/31 12:48:06;;;;;;;9.07;2.63;;;11.60;68.00;;;;;;4944579;29;20059;-83
2023/01/31 12:50:44;;;;;;;6.20;2.22;;;11.70;67.60;;;;;;4927850;29;20372;-82
2023/01/31 12:53:40;;;;;;;7.68;2.63;;;11.70;66.60;;;;;;4928091;29;20036;-82
2023/01/31 12:56:16;;;;;;;8.50;1.70;;;11.60;67.70;;;;;;4939110;29;20083;-82
2023/01/31 12:58:48;;;;;;;4.35;2.17;;;11.70;67.70;;;;;;4925787;29;20036;-83
2023/01/31 13:01:42;;;;;;;6.55;2.40;;;11.80;67.50;;;;;;4938300;29;20036;-82
2023/01/31 13:04:32;;;;;;;6.82;2.35;;;11.80;68.00;;;;;;4936184;29;20039;-82
2023/01/31 13:07:01;;;;;;;4.50;2.47;;;11.80;67.60;;;;;;4926892;29;20034;-82
2023/01/31 13:09:31;;;;;;;6.85;2.60;;;11.80;67.80;;;;;;4944474;29;20458;-82
2023/01/31 13:12:18;;;;;;;7.88;3.00;;;11.80;67.00;;;;;;4945362;29;20046;-82
2023/01/31 13:15:02;;;;;;;10.32;2.38;;;11.80;67.90;;;;;;4917682;29;20062;-82
2023/01/31 13:17:30;;;;;;;4.75;2.75;;;11.80;67.50;;;;;;4943562;29;20058;-82
2023/01/31 13:20:13;;;;;;;7.72;2.60;;;11.90;67.40;;;;;;4943606;29;20062;-82
2023/01/31 13:22:48;;;;;;;6.97;2.28;;;12.10;67.70;;;;;;4927034;29;20095;-82
2023/01/31 13:25:21;;;;;;;7.88;2.47;;;12.30;67.20;;;;;;4944197;29;20734;-82
2023/01/31 13:28:36;;;;;;;5.93;2.40;;;12.40;66.70;;;;;;4943059;29;20127;-82
2023/01/31 13:31:10;;;;;;;8.65;2.67;;;12.40;66.80;;;;;;4844693;29;20061;-82
2023/01/31 13:33:58;;;;;;;11.65;2.95;;;12.40;66.50;;;;;;4929103;29;20156;-82
2023/01/31 13:36:42;;;;;;;5.32;2.13;;;12.50;66.40;;;;;;4938921;29;20126;-82
2023/01/31 13:39:36;;;;;;;4.22;2.25;;;12.60;66.60;;;;;;4937993;29;20507;-82
2023/01/31 13:42:02;;;;;;;5.85;2.33;;;12.70;66.90;;;;;;4923807;29;20049;-82
2023/01/31 13:44:28;;;;;;;3.95;2.65;;;12.70;66.60;;;;;;4919859;29;20052;-82
2023/01/31 13:47:15;;;;;;;4.88;1.58;;;12.70;67.00;;;;;;4937635;29;20039;-82
2023/01/31 13:49:48;;;;;;;4.32;1.90;;;12.70;66.90;;;;;;4941233;29;20026;-82
2023/01/31 13:52:22;;;;;;;2.60;1.40;;;12.80;66.70;;;;;;4936244;29;20043;-82
2023/01/31 13:55:00;;;;;;;5.25;1.88;;;12.70;66.90;;;;;;4926251;29;20024;-82
2023/01/31 13:57:31;;;;;;;6.40;1.85;;;12.70;66.70;;;;;;4931357;29;20043;-84
2023/01/31 14:00:28;;;;;;;9.38;2.08;;;12.70;67.30;;;;;;4940261;29;20027;-82
2023/01/31 14:03:09;;;;;;;4.85;1.95;;;12.70;67.00;;;;;;4904737;29;20120;-82
2023/01/31 14:05:44;;;;;;;5.18;1.95;;;12.50;67.00;;;;;;4925933;29;20035;-82
2023/01/31 14:08:58;;;;;;;3.60;1.75;;;12.50;67.30;;;;;;4934429;29;20456;-83
2023/01/31 14:11:24;;;;;;;4.30;2.22;;;12.50;67.70;;;;;;4923437;29;20035;-83
2023/01/31 14:14:17;;;;;;;9.15;1.90;;;12.50;68.00;;;;;;4923860;29;20043;-82
2023/01/31 14:16:45;;;;;;;9.15;2.03;;;12.50;68.10;;;;;;4884397;29;20032;-81
2023/01/31 14:19:22;;;;;;;4.03;1.45;;;12.60;67.40;;;;;;4904317;29;20032;-82
2023/01/31 14:22:12;;;;;;;6.93;2.38;;;12.70;67.80;;;;;;4934600;29;20039;-81
2023/01/31 14:24:52;;;;;;;6.10;1.98;;;12.80;67.50;;;;;;4932440;29;20043;-82
2023/01/31 14:27:20;;;;;;;4.07;1.85;;;12.80;67.60;;;;;;4916417;29;20060;-82
2023/01/31 14:29:53;;;;;;;9.45;1.92;;;12.80;67.40;;;;;;4923308;29;20394;-82
2023/01/31 14:32:39;;;;;;;5.07;2.40;;;12.80;67.40;;;;;;4927838;29;20050;-82
2023/01/31 14:35:14;;;;;;;4.10;2.08;;;12.80;67.70;;;;;;4922309;29;20089;-81
2023/01/31 14:38:02;;;;;;;4.22;1.98;;;12.80;67.60;;;;;;4922842;29;20063;-81
2023/01/31 14:40:52;;;;;;;8.60;2.70;;;12.80;67.30;;;;;;4937465;29;20028;-81
2023/01/31 14:43:33;;;;;;;8.90;2.15;;;12.90;66.90;;;;;;4940074;29;20038;-82
2023/01/31 14:46:18;;;;;;;6.43;2.03;;;12.90;67.50;;;;;;4939860;29;20513;-82
2023/01/31 14:49:19;;;;;;;6.35;1.83;;;13.00;67.40;;;;;;4915436;29;20060;-82
2023/01/31 14:52:18;;;;;;;3.75;2.05;;;12.90;67.60;;;;;;4928707;29;20652;-81
2023/01/31 14:54:54;;;;;;;5.90;2.10;;;12.90;67.90;;;;;;4904863;29;20032;-82
2023/01/31 14:58:05;;;;;;;5.22;2.50;;;12.80;67.40;;;;;;4933159;29;20032;-82
2023/01/31 15:00:36;;;;;;;9.55;2.78;;;12.70;67.20;;;;;;4906051;29;20071;-81
2023/01/31 15:03:04;;;;;;;10.27;2.53;;;12.70;67.80;;;;;;4922537;29;20040;-82
2023/01/31 15:05:30;;;;;;;6.40;2.28;;;12.70;67.90;;;;;;4939566;29;20031;-81
2023/01/31 15:08:04;;;;;;;7.07;2.40;;;12.70;68.10;;;;;;4926270;29;20070;-81
2023/01/31 15:11:02;;;;;;;6.97;2.67;;;12.70;68.20;;;;;;4923874;29;20068;-81
2023/01/31 15:13:35;;;;;;;9.63;2.45;;;12.70;68.30;;;;;;4918181;29;20109;-81
2023/01/31 15:16:06;;;;;;;5.25;2.03;;;12.80;68.50;;;;;;4924809;29;20051;-81
2023/01/31 15:18:33;;;;;;;6.55;2.20;;;12.80;68.30;;;;;;4922349;29;20422;-81
2023/01/31 15:21:02;;;;;;;7.25;2.35;;;12.80;68.60;;;;;;4922378;29;20032;-81
2023/01/31 15:23:31;;;;;;;6.30;2.50;;;12.80;68.70;;;;;;4918161;29;20043;-81
2023/01/31 15:25:58;;;;;;;3.67;2.20;;;12.70;68.10;;;;;;4906249;29;20439;-82
2023/01/31 15:28:32;;;;;;;7.78;2.75;;;12.70;68.60;;;;;;4922319;29;20032;-81
2023/01/31 15:31:01;;;;;;;8.38;2.58;;;12.60;68.80;;;;;;4930853;29;20138;-81
2023/01/31 15:33:30;;;;;;;9.77;2.63;;;12.60;68.60;;;;;;4939453;29;20107;-81
2023/01/31 15:35:59;;;;;;;6.40;2.00;;;12.50;68.90;;;;;;4939317;29;20394;-81
2023/01/31 15:38:34;;;;;;;6.53;2.05;;;12.60;69.00;;;;;;4918079;29;20032;-81
2023/01/31 15:41:25;;;;;;;11.23;2.03;;;12.50;69.20;;;;;;4922424;29;20104;-82
2023/01/31 15:44:09;;;;;;;5.15;2.83;;;12.50;69.40;;;;;;4919938;29;20019;-81
2023/01/31 15:46:35;;;;;;;6.22;2.03;;;12.50;69.80;;;;;;4926576;29;20398;-82
2023/01/31 15:49:01;;;;;;;4.47;2.28;;;12.50;69.90;;;;;;4921822;29;20042;-82
2023/01/31 15:51:27;;;;;;;5.82;2.65;;;12.50;69.80;;;;;;4921383;29;20106;-82
2023/01/31 15:54:04;;;;;;;6.20;2.45;;;12.40;69.80;;;;;;4938924;29;20027;-82
2023/01/31 15:56:31;;;;;;;5.75;2.70;;;12.30;70.10;;;;;;4936966;29;20063;-82
2023/01/31 15:58:57;;;;;;;4.60;1.92;;;12.30;70.20;;;;;;4928090;29;20108;-82
2023/01/31 16:01:29;;;;;;;5.70;2.42;;;12.30;70.40;;;;;;4921218;29;20402;-82
2023/01/31 16:03:57;;;;;;;7.93;2.50;;;12.30;70.30;;;;;;4937704;29;20015;-82
2023/01/31 16:06:28;;;;;;;7.65;2.97;;;12.20;70.50;;;;;;4938547;29;20593;-81
2023/01/31 16:08:56;;;;;;;4.90;2.90;;;12.20;70.50;;;;;;4920766;29;20526;-81
2023/01/31 16:11:24;;;;;;;5.75;2.60;;;12.10;70.40;;;;;;4931503;29;20047;-81
2023/01/31 16:13:53;;;;;;;6.45;2.47;;;12.00;70.90;;;;;;4924454;29;20435;-81
2023/01/31 16:16:20;;;;;;;7.15;2.60;;;12.00;71.00;;;;;;4922504;29;20039;-81
2023/01/31 16:18:54;;;;;;;5.13;2.33;;;12.00;71.20;;;;;;4922682;29;20407;-81
2023/01/31 16:21:26;;;;;;;9.38;2.70;;;11.90;71.80;;;;;;4921525;29;20554;-81
2023/01/31 16:24:11;;;;;;;7.38;2.95;;;11.80;72.60;;;;;;4938437;29;20030;-81
2023/01/31 16:26:39;;;;;;;10.35;2.75;;;11.80;73.30;;;;;;4936279;29;20024;-82
2023/01/31 16:29:18;;;;;;;6.70;2.78;;;11.80;73.80;;;;;;4921606;29;20032;-81
2023/01/31 16:31:47;;;;;;;6.47;2.38;;;11.80;75.10;;;;;;4903788;29;20057;-81
2023/01/31 16:34:29;;;;;;;3.57;2.43;;;11.70;75.80;;;;;;4912036;29;20028;-82
2023/01/31 16:36:58;;;;;;;8.85;3.40;;;11.70;75.90;;;;;;4911111;29;20275;-84
2023/01/31 16:39:26;;;;;;;7.75;3.20;;;11.70;76.40;;;;;;4893192;29;20029;-80
2023/01/31 16:41:54;;;;;;;9.88;3.10;;;11.70;76.60;;;;;;4908635;29;20076;-80
2023/01/31 16:44:21;;;;;;;8.05;3.33;;;11.60;77.10;;;;;;4898991;29;20028;-82
2023/01/31 16:46:50;;;;;;;10.77;3.90;;;11.60;77.30;;;;;;4915262;29;20024;-83
2023/01/31 16:49:27;;;;;;;7.05;4.45;;;11.60;77.40;;;;;;4901036;29;20113;-82
2023/01/31 16:52:26;;;;;;;8.18;4.47;;;11.50;78.00;;;;;;4916496;29;20036;-81
2023/01/31 16:54:58;;;;;;;10.13;4.50;;;11.50;77.80;;;;;;4891807;29;20043;-80
2023/01/31 16:57:32;;;;;;;11.27;4.18;;;11.40;77.90;;;;;;4904336;29;20032;-81
2023/01/31 16:59:59;;;;;;;7.00;3.65;;;11.30;78.20;;;;;;4916959;29;20035;-80
2023/01/31 17:02:31;;;;;;;7.85;3.90;;;11.30;78.00;;;;;;4895115;29;20037;-80
2023/01/31 17:05:07;;;;;;;13.15;5.35;;;11.30;78.60;;;;;;4918195;29;20024;-80
2023/01/31 17:07:35;;;;;;;14.70;6.63;;;11.20;78.50;;;;;;4918906;29;20491;-80
2023/01/31 17:10:08;;;;;;;13.95;7.03;;;11.20;78.60;;;;;;4919048;29;20451;-80
2023/01/31 17:12:37;;;;;;;9.38;4.63;;;11.20;78.60;;;;;;4912858;29;20848;-79
2023/01/31 17:15:13;;;;;;;9.65;3.63;;;11.20;78.60;;;;;;4920617;29;20043;-80
2023/01/31 17:17:43;;;;;;;7.63;4.10;;;11.20;78.80;;;;;;4913022;29;20032;-79
2023/01/31 17:20:12;;;;;;;;;;;11.20;78.80;;;;;;4911982;29;20047;-80
2023/01/31 17:22:37;;;;;;;14.82;6.30;;;11.10;79.00;;;;;;4908838;29;20001;-80
2023/01/31 17:25:25;;;;;;;12.70;6.32;;;11.10;78.90;;;;;;4921949;29;20059;-80
2023/01/31 17:27:51;;;;;;;13.15;6.47;;;11.10;78.70;;;;;;4909913;29;20474;-80
2023/01/31 17:30:18;;;;;;;11.75;7.10;;;11.10;78.80;;;;;;4909021;29;20466;-79
2023/01/31 17:32:44;;;;;;;13.68;6.68;;;11.00;78.70;;;;;;4940986;29;20036;-81
2023/01/31 17:35:19;;;;;;;12.50;5.85;;;11.00;78.90;;;;;;4923620;29;20580;-79
2023/01/31 17:37:45;;;;;;;7.78;5.53;;;11.00;79.20;;;;;;4927503;29;20038;-80
2023/01/31 17:40:11;;;;;;;11.95;5.50;;;11.00;79.10;;;;;;4937443;29;20050;-80
2023/01/31 17:42:37;;;;;;;6.18;4.97;;;10.90;79.30;;;;;;4936242;29;20019;-79
2023/01/31 17:45:04;;;;;;;6.30;4.50;;;10.90;79.30;;;;;;4912272;29;20131;-80
2023/01/31 17:47:29;;;;;;;5.47;3.63;;;10.90;79.70;;;;;;4934247;29;20460;-79
2023/01/31 17:49:56;;;;;;;8.63;4.57;;;10.90;79.40;;;;;;4939548;29;20040;-80
2023/01/31 17:52:22;;;;;;;14.13;6.00;;;10.90;79.40;;;;;;4914297;29;20517;-80
2023/01/31 17:54:48;;;;;;;13.68;8.60;;;10.80;79.60;;;;;;4938338;29;20035;-80
2023/01/31 17:57:14;;;;;;;17.63;8.85;;;10.90;79.60;;;;;;4940834;29;20043;-83
2023/01/31 17:59:39;;;;;;;20.88;12.35;;;10.90;79.60;;;;;;4936332;29;20399;-84
2023/01/31 18:02:06;;;;;;;18.98;10.85;;;10.80;80.00;;;;;;4933252;29;20042;-82
2023/01/31 18:04:32;;;;;;;18.50;10.45;;;10.90;79.90;;;;;;4917682;29;20059;-82
2023/01/31 18:06:57;;;;;;;20.63;9.82;;;10.80;80.00;;;;;;4920535;29;20024;-82
2023/01/31 18:09:24;;;;;;;20.58;9.50;;;10.90;79.90;;;;;;4940478;29;20488;-82
2023/01/31 18:11:50;;;;;;;15.57;8.15;;;10.80;80.20;;;;;;4939882;29;20028;-82
2023/01/31 18:14:16;;;;;;;17.75;7.43;;;10.80;80.20;;;;;;4915953;29;20041;-83
2023/01/31 18:16:42;;;;;;;13.32;7.00;;;10.90;80.40;;;;;;4940152;29;20111;-83
2023/01/31 18:19:08;;;;;;;13.40;7.35;;;10.90;80.50;;;;;;4936157;29;20044;-82
2023/01/31 18:21:34;;;;;;;13.48;8.23;;;10.80;80.60;;;;;;4921521;29;20087;-83
2023/01/31 18:24:00;;;;;;;11.98;8.10;;;10.80;80.50;;;;;;4939521;29;20030;-83
2023/01/31 18:26:28;;;;;;;17.02;9.27;;;10.90;80.40;;;;;;4939224;29;20031;-83
2023/01/31 18:28:56;;;;;;;23.73;11.00;;;10.80;80.50;;;;;;4939297;29;20489;-82
2023/01/31 18:31:22;;;;;;;19.85;10.48;;;10.80;80.80;;;;;;4937119;29;20056;-83
2023/01/31 18:33:48;;;;;;;24.52;11.32;;;10.80;80.70;;;;;;4938134;29;20035;-83
2023/01/31 18:36:17;;;;;;;19.70;9.07;;;10.80;80.60;;;;;;4928610;29;20040;-83
2023/01/31 18:38:44;;;;;;;14.68;8.20;;;10.80;80.50;;;;;;4919939;29;20032;-82
2023/01/31 18:41:17;;;;;;;18.25;8.35;;;10.80;80.60;;;;;;4926760;29;20373;-82
2023/01/31 18:43:42;;;;;;;16.75;8.15;;;10.80;80.70;;;;;;4914984;29;20027;-84
2023/01/31 18:46:09;;;;;;;15.32;6.38;;;10.80;80.60;;;;;;4920493;29;20024;-81
2023/01/31 18:48:36;;;;;;;11.45;6.07;;;10.80;80.60;;;;;;4926279;29;20056;-80